Darstellungsparameter: Aktuell verwendete Einstellungen:
Skalierung der Graphiken ... ?
xyx+y,   Skalierungsfaktor:      Skalierung: Modus: x, Faktor: 1
Darstellungszeitraum ... ?
Vom - - bis: - -   Zeitraum: 21.04.2011 - 21.04.2011
Min/Max/Avg-Anzeige ... ?
Zeige MMA aktuell
Zeige MMA Monat
Zeige MMA alles
Zeige --A aktuell
Zeige --A Monat
Zeige --A alles
Keine MMA-Anzeige
MMA:
Average (ber die Originaldaten)
MMA-Basis: 21.04.2011 - 21.04.2011
Quicknavigation für Darstellung... ?
Tage:      1T, 2T, 3T, 5T -1T -2T -3T -5T +1T +2T +3T +5T
Wochen: 1W, 2W, 3W -1W -2W -3W +1W +2W +3W
Monate: 1M, 3M, 6M -1M -3M -6M +1M +3M +6M
Jahre:    1J, 3J, 5J, 10J -1J -3J -5J -10J +1J +3J +5J +10J
Nutze für die Darstellung ... ?
Originaldaten oder Mittelwerte auf ...
Stundenbasis Tagesbasis Wochenbasis
Monatsbasis Jahresbasis      Datenbasis: Original-Daten
Darstellen als:
Statistik (Auto) Statistik J:M      Darstellung:
Zur Graphik,    zurück zur Übersicht aller Sensoren.
 
Tabellarische Datenbersicht: ?
 
Sensor: Nr:Datum:Temp:Abs-Feuchte:Windchill:Wind:
Aussen-T/F 1 21-04-2011 00:02:04 9.1 C 5.06 g/m*3 9.1 C 0 km/h
2 21-04-2011 00:14:04 8.9 C 5.17 g/m*3 8.9 C 0 km/h
3 21-04-2011 00:26:04 8.7 C 5.36 g/m*3 8.7 C 0 km/h
4 21-04-2011 00:38:04 8.4 C 5.34 g/m*3 8.4 C 0 km/h
5 21-04-2011 00:50:04 8.2 C 5.36 g/m*3 8.2 C 0 km/h
6 21-04-2011 01:02:04 8.3 C 5.65 g/m*3 8.3 C 0 km/h
7 21-04-2011 01:14:05 8.4 C 5.51 g/m*3 8.4 C 0 km/h
8 21-04-2011 01:26:05 8.1 C 5.33 g/m*3 8.1 C 0 km/h
9 21-04-2011 01:38:05 7.9 C 5.34 g/m*3 7.9 C 0 km/h
10 21-04-2011 01:50:05 7.7 C 5.43 g/m*3 7.7 C 0 km/h
11 21-04-2011 02:02:05 7.4 C 5.41 g/m*3 7.4 C 0 km/h
12 21-04-2011 02:14:05 7.2 C 5.42 g/m*3 7.2 C 0 km/h
13 21-04-2011 02:26:05 7 C 5.5 g/m*3 7 C 0 km/h
14 21-04-2011 02:38:05 6.9 C 5.54 g/m*3 6.9 C 0 km/h
15 21-04-2011 02:50:05 6.6 C 5.51 g/m*3 6.6 C 0 km/h
16 21-04-2011 03:02:05 6.9 C 5.7 g/m*3 6.9 C 0 km/h
17 21-04-2011 03:14:05 6.7 C 5.7 g/m*3 6.7 C 0 km/h
18 21-04-2011 03:26:05 6.3 C 5.55 g/m*3 6.3 C 0 km/h
19 21-04-2011 03:38:05 6.2 C 5.66 g/m*3 6.2 C 0 km/h
20 21-04-2011 03:50:05 6 C 5.52 g/m*3 6 C 0 km/h
21 21-04-2011 04:02:05 6 C 5.66 g/m*3 6 C 0 km/h
22 21-04-2011 04:14:05 5.7 C 5.69 g/m*3 5.7 C 0 km/h
23 21-04-2011 04:26:05 5.8 C 5.8 g/m*3 5.8 C 0 km/h
24 21-04-2011 04:38:05 5.4 C 5.58 g/m*3 5.4 C 0 km/h
25 21-04-2011 04:50:05 5.2 C 5.51 g/m*3 5.2 C 0 km/h
Sensor: Nr:Datum:Temp:Abs-Feuchte:Windchill:Wind:
Aussen-T/F 26 21-04-2011 05:02:05 5.2 C 5.65 g/m*3 5.2 C 0 km/h
27 21-04-2011 05:14:06 5 C 5.57 g/m*3 5 C 0 km/h
28 21-04-2011 05:26:06 4.8 C 5.57 g/m*3 4.8 C 0 km/h
29 21-04-2011 05:38:06 4.7 C 5.53 g/m*3 4.7 C 0 km/h
30 21-04-2011 05:50:06 4.6 C 5.56 g/m*3 4.6 C 0 km/h
31 21-04-2011 06:02:06 4.6 C 5.56 g/m*3 4.6 C 0 km/h
32 21-04-2011 06:14:06 4.5 C 5.52 g/m*3 4.5 C 0 km/h
33 21-04-2011 06:26:06 4.6 C 5.62 g/m*3 4.6 C 0 km/h
34 21-04-2011 06:38:06 4.8 C 5.77 g/m*3 4.8 C 0 km/h
35 21-04-2011 06:50:06 4.9 C 5.87 g/m*3 4.9 C 0 km/h
36 21-04-2011 07:02:06 4.8 C 5.83 g/m*3 4.8 C 0 km/h
37 21-04-2011 07:14:06 5.1 C 5.88 g/m*3 5.1 C 0 km/h
38 21-04-2011 07:26:03 5.2 C 5.99 g/m*3 5.2 C 0 km/h
39 21-04-2011 07:38:02 5.3 C 5.96 g/m*3 5.3 C 0 km/h
40 21-04-2011 07:50:02 5.5 C 6.04 g/m*3 5.5 C 0 km/h
41 21-04-2011 08:02:01 5.7 C 6.19 g/m*3 5.7 C 0 km/h
42 21-04-2011 08:14:01 5.9 C 6.27 g/m*3 5.9 C 0 km/h
43 21-04-2011 08:26:02 6.2 C 6.32 g/m*3 6.2 C 0 km/h
44 21-04-2011 08:38:02 6.5 C 6.45 g/m*3 6.5 C 0 km/h
45 21-04-2011 08:50:02 6.9 C 6.62 g/m*3 6.9 C 0 km/h
46 21-04-2011 09:02:03 7.5 C 6.8 g/m*3 7.5 C 0 km/h
47 21-04-2011 09:14:03 8.1 C 6.91 g/m*3 8.1 C 0 km/h
48 21-04-2011 09:26:02 8.5 C 7 g/m*3 8.5 C 0 km/h
49 21-04-2011 09:38:03 9.1 C 7.01 g/m*3 9.1 C 0 km/h
50 21-04-2011 09:50:02 9.6 C 7.15 g/m*3 9.6 C 0 km/h
Sensor: Nr:Datum:Temp:Abs-Feuchte:Windchill:Wind:
Aussen-T/F 51 21-04-2011 10:02:01 10.3 C 6.99 g/m*3 10.3 C 0 km/h
52 21-04-2011 10:14:01 11 C 6.61 g/m*3 11 C 0 km/h
53 21-04-2011 10:26:02 11.8 C 6.74 g/m*3 11.8 C 0 km/h
54 21-04-2011 10:38:02 12.5 C 6.6 g/m*3 12.5 C 0 km/h
55 21-04-2011 10:50:03 13.2 C 6.43 g/m*3 13.2 C 0 km/h
56 21-04-2011 11:02:02 14 C 6.39 g/m*3 14 C 0 km/h
57 21-04-2011 11:14:02 14.5 C 6.59 g/m*3 14.5 C 0 km/h
58 21-04-2011 11:26:01 15.1 C 6.32 g/m*3 15.1 C 0 km/h
59 21-04-2011 11:38:02 16 C 6.4 g/m*3 16 C 0 km/h
60 21-04-2011 11:50:02 16.3 C 6.52 g/m*3 16.3 C 0 km/h
61 21-04-2011 12:02:02 16.5 C 6.88 g/m*3 16.5 C 0 km/h
62 21-04-2011 12:14:02 17.2 C 6.74 g/m*3 17.2 C 0 km/h
63 21-04-2011 12:26:02 17.9 C 6.72 g/m*3 17.9 C 0 km/h
64 21-04-2011 12:38:02 18.4 C 6.45 g/m*3 18.4 C 0 km/h
65 21-04-2011 12:50:02 19 C 6.84 g/m*3 19 C 0 km/h
66 21-04-2011 13:02:03 19.8 C 5.98 g/m*3 19.8 C 0 km/h
67 21-04-2011 13:14:03 20.3 C 5.98 g/m*3 20.3 C 0 km/h
68 21-04-2011 13:26:02 19.9 C 6.87 g/m*3 19.9 C 0 km/h
69 21-04-2011 13:38:03 20.1 C 6.78 g/m*3 20.1 C 0 km/h
70 21-04-2011 13:50:02 24.4 C 4.67 g/m*3 24.4 C 0 km/h
71 21-04-2011 14:02:02 28.2 C 5.5 g/m*3 28.2 C 0 km/h
72 21-04-2011 14:14:02 29.9 C 6.03 g/m*3 29.9 C 0 km/h
73 21-04-2011 14:26:02 30 C 6.06 g/m*3 30 C 0 km/h
74 21-04-2011 14:38:02 30.4 C 6.2 g/m*3 30.4 C 0 km/h
75 21-04-2011 14:50:02 31.3 C 6.5 g/m*3 31.3 C 0 km/h
Sensor: Nr:Datum:Temp:Abs-Feuchte:Windchill:Wind:
Aussen-T/F 76 21-04-2011 15:02:02 31.8 C 6.68 g/m*3 31.8 C 0 km/h
77 21-04-2011 15:14:02 30.7 C 6.3 g/m*3 30.7 C 0 km/h
78 21-04-2011 15:26:02 31.8 C 6.68 g/m*3 31.8 C 0 km/h
79 21-04-2011 15:38:02 31.4 C 6.54 g/m*3 31.4 C 0 km/h
80 21-04-2011 15:50:02 31.3 C 6.5 g/m*3 31.3 C 0 km/h
81 21-04-2011 16:02:02 31.4 C 6.54 g/m*3 31.4 C 0 km/h
82 21-04-2011 16:14:02 29.4 C 5.87 g/m*3 29.4 C 0 km/h
83 21-04-2011 16:26:03 30.3 C 6.16 g/m*3 30.3 C 0 km/h
84 21-04-2011 16:38:02 31.4 C 6.54 g/m*3 31.4 C 0 km/h
85 21-04-2011 16:50:02 31.5 C 6.57 g/m*3 31.5 C 0 km/h
86 21-04-2011 17:02:02 31.5 C 6.57 g/m*3 31.5 C 0 km/h
87 21-04-2011 17:14:02 31.2 C 6.47 g/m*3 31.2 C 0 km/h
88 21-04-2011 17:26:02 31.7 C 6.64 g/m*3 31.7 C 0 km/h
89 21-04-2011 17:38:02 31.5 C 6.57 g/m*3 31.5 C 0 km/h
90 21-04-2011 17:50:02 29.6 C 5.94 g/m*3 29.6 C 0 km/h
91 21-04-2011 18:02:02 26.9 C 5.12 g/m*3 26.9 C 0 km/h
92 21-04-2011 18:14:02 24 C 5 g/m*3 24 C 0 km/h
93 21-04-2011 18:26:02 22.3 C 5.53 g/m*3 22.3 C 0 km/h
94 21-04-2011 18:38:02 21.5 C 5.85 g/m*3 21.5 C 0 km/h
95 21-04-2011 18:50:02 20.5 C 5.87 g/m*3 20.5 C 0 km/h
96 21-04-2011 19:02:02 19.8 C 5.98 g/m*3 19.8 C 0 km/h
97 21-04-2011 19:14:02 19.3 C 5.47 g/m*3 19.3 C 0 km/h
98 21-04-2011 19:26:03 18.9 C 5.51 g/m*3 18.9 C 0 km/h
99 21-04-2011 19:38:02 18.1 C 5.41 g/m*3 18.1 C 0 km/h
100 21-04-2011 19:50:02 17.5 C 5.81 g/m*3 17.5 C 0 km/h
Sensor: Nr:Datum:Temp:Abs-Feuchte:Windchill:Wind:
Aussen-T/F 101 21-04-2011 20:02:01 17 C 5.93 g/m*3 17 C 0 km/h
102 21-04-2011 20:14:01 16.4 C 5.86 g/m*3 16.4 C 0 km/h
103 21-04-2011 20:26:02 15.4 C 5.65 g/m*3 15.4 C 0 km/h
104 21-04-2011 20:38:01 14.8 C 5.83 g/m*3 14.8 C 0 km/h
105 21-04-2011 20:50:02 14.4 C 5.81 g/m*3 14.4 C 0 km/h
106 21-04-2011 21:02:01 14.2 C 5.98 g/m*3 14.2 C 0 km/h
107 21-04-2011 21:14:01 13.8 C 5.96 g/m*3 13.8 C 0 km/h
108 21-04-2011 21:26:01 13.4 C 5.81 g/m*3 13.4 C 0 km/h
109 21-04-2011 21:38:01 13.1 C 5.82 g/m*3 13.1 C 0 km/h
110 21-04-2011 21:50:02 12.8 C 5.94 g/m*3 12.8 C 0 km/h
111 21-04-2011 22:02:03 12.7 C 6.01 g/m*3 12.7 C 0 km/h
112 21-04-2011 22:14:03 12.4 C 5.79 g/m*3 12.4 C 0 km/h
113 21-04-2011 22:26:02 12.1 C 5.79 g/m*3 12.1 C 0 km/h
114 21-04-2011 22:39:03 11.9 C 5.82 g/m*3 11.9 C 0 km/h
115 21-04-2011 22:51:03 11.5 C 5.99 g/m*3 11.5 C 0 km/h
116 21-04-2011 23:03:03 11.4 C 6.06 g/m*3 11.4 C 0 km/h
117 21-04-2011 23:15:03 11.1 C 6.14 g/m*3 11.1 C 0 km/h
118 21-04-2011 23:27:03 10.6 C 6.15 g/m*3 10.6 C 0 km/h
119 21-04-2011 23:39:04 10.2 C 6 g/m*3 10.2 C 0 km/h
120 21-04-2011 23:51:04 10.1 C 6.05 g/m*3 10.1 C 0 km/h

Legende:
   Min
   Max


Maximal/Minimal-Werte vom 21.04.2011 - 21.04.2011

Sensor Min Max Avg
Temp
(Aussen-T/F)
4.5 °C
21-04-2011  06:14:06
31.8 °C
21-04-2011  15:02:02
14.49 °C
Abs-Feuchte
(Aussen-T/F)
4.67 g/m*3
21-04-2011  13:50:02
7.15 g/m*3
21-04-2011  09:50:02
5.95 g/m*3
Windchill
(Aussen-T/F)
4.5 C
21-04-2011  06:14:06
31.8 C
21-04-2011  15:02:02
14.37 C

Die Daten stammen von einer Davis Vantage Pro 2 Wetter-Station und werden unter Linux mit der Software wview2wettercgi und aufbereitet. Alle Angaben erfolgen ohne Gewähr für ihre Vollständigkeit oder Richtigkeit.
Kontakt: Rainer Krienke krienke@uni-koblenz.de . Meine Webseiten an der Uni Koblenz oder privat.
Version: $Revision: 0.78 $